Time;durP1;ratioP1;P1;durP2;ratioP2;P2;SDS_P1;SDS_P2;PMS_P1;PMS_P2;Temp;Humidity;BMP_temperature;BMP_pressure;BME280_temperature;BME280_humidity;BME280_pressure;Samples;Min_cycle;Max_cycle;Signal;HPM_P1;HPM_P2
2023/07/21 00:00:18;;;;;;;6.30;2.42;;;16.00;71.80;;;;;;6131718;23;20511;-92
2023/07/21 00:02:50;;;;;;;6.28;2.10;;;16.00;71.60;;;;;;6133501;23;20021;-91
2023/07/21 00:05:17;;;;;;;5.00;2.03;;;16.00;71.90;;;;;;6157447;23;20028;-90
2023/07/21 00:07:44;;;;;;;8.07;2.13;;;15.90;72.30;;;;;;6133114;23;20021;-92
2023/07/21 00:10:11;;;;;;;5.20;1.97;;;15.90;72.50;;;;;;6132993;23;20021;-90
2023/07/21 00:12:42;;;;;;;5.57;2.40;;;16.00;72.20;;;;;;6157531;23;20019;-91
2023/07/21 00:15:10;;;;;;;5.53;2.25;;;15.90;72.20;;;;;;6133118;23;20104;-91
2023/07/21 00:17:37;;;;;;;4.63;2.08;;;15.90;72.00;;;;;;6157508;23;20076;-91
2023/07/21 00:20:12;;;;;;;5.28;2.20;;;15.90;72.10;;;;;;6157584;23;20045;-91
2023/07/21 00:22:40;;;;;;;5.40;2.30;;;15.90;72.30;;;;;;6158315;23;20095;-91
2023/07/21 00:25:10;;;;;;;7.50;2.45;;;15.80;72.50;;;;;;6157449;23;20017;-91
2023/07/21 00:27:39;;;;;;;6.50;2.58;;;15.90;72.60;;;;;;6133061;23;20018;-91
2023/07/21 00:30:09;;;;;;;5.80;2.30;;;15.90;72.40;;;;;;6132887;23;20352;-91
2023/07/21 00:32:38;;;;;;;7.35;2.63;;;16.00;72.40;;;;;;6157432;23;20051;-90
2023/07/21 00:35:08;;;;;;;6.90;2.57;;;15.90;72.20;;;;;;6133006;23;20022;-91
2023/07/21 00:37:36;;;;;;;7.70;2.75;;;16.00;72.60;;;;;;6157480;23;20017;-91
2023/07/21 00:40:09;;;;;;;7.88;2.28;;;16.00;72.30;;;;;;6133025;23;20025;-91
2023/07/21 00:42:37;;;;;;;6.95;2.47;;;16.00;71.90;;;;;;6132726;23;20017;-91
2023/07/21 00:45:05;;;;;;;7.10;3.08;;;16.00;71.60;;;;;;6132701;23;20352;-91
2023/07/21 00:47:34;;;;;;;7.20;2.77;;;16.00;72.10;;;;;;6157287;23;20025;-90
2023/07/21 00:50:02;;;;;;;7.65;3.35;;;16.00;72.00;;;;;;6132828;23;20018;-91
2023/07/21 00:52:29;;;;;;;6.63;2.97;;;15.90;72.20;;;;;;6132894;23;20028;-91
2023/07/21 00:54:56;;;;;;;6.22;2.47;;;15.80;72.60;;;;;;6161856;23;20039;-91
2023/07/21 00:57:24;;;;;;;7.22;3.00;;;15.90;72.50;;;;;;6137587;23;20392;-91
2023/07/21 00:59:51;;;;;;;8.40;2.63;;;15.90;72.80;;;;;;6137698;23;20021;-91
2023/07/21 01:02:18;;;;;;;6.05;2.40;;;15.80;72.60;;;;;;6137562;23;20024;-91
2023/07/21 01:04:46;;;;;;;7.80;2.58;;;15.80;73.00;;;;;;6137348;23;20355;-91
2023/07/21 01:07:15;;;;;;;7.07;2.70;;;15.80;72.80;;;;;;6137547;23;20075;-91
2023/07/21 01:09:43;;;;;;;6.90;2.90;;;15.80;72.70;;;;;;6161780;23;20040;-91
2023/07/21 01:12:11;;;;;;;8.60;2.53;;;15.80;72.70;;;;;;6137494;23;20017;-91
2023/07/21 01:14:39;;;;;;;6.68;2.60;;;15.80;72.80;;;;;;6137106;23;20543;-91
2023/07/21 01:17:08;;;;;;;5.75;2.72;;;15.80;73.10;;;;;;6137407;23;20013;-91
2023/07/21 01:19:37;;;;;;;6.63;2.80;;;15.60;73.00;;;;;;6137449;23;20017;-92
2023/07/21 01:22:47;;;;;;;8.20;2.60;;;15.60;73.00;;;;;;6137530;23;20021;-91
2023/07/21 01:25:16;;;;;;;5.43;2.40;;;15.70;73.40;;;;;;6143995;23;20080;-91
2023/07/21 01:27:47;;;;;;;6.70;2.80;;;15.70;73.50;;;;;;6137267;23;20415;-91
2023/07/21 01:30:16;;;;;;;6.75;2.63;;;15.70;72.90;;;;;;6161794;23;20073;-91
2023/07/21 01:32:45;;;;;;;6.43;2.75;;;15.80;72.90;;;;;;6137196;23;20107;-91
2023/07/21 01:35:17;;;;;;;5.45;2.60;;;15.80;73.00;;;;;;6161482;23;20049;-90
2023/07/21 01:37:47;;;;;;;8.90;2.93;;;15.70;73.00;;;;;;6161745;23;20100;-91
2023/07/21 01:40:16;;;;;;;6.32;2.78;;;15.50;73.00;;;;;;6137134;23;20352;-92
2023/07/21 01:42:46;;;;;;;6.47;2.95;;;15.50;73.20;;;;;;6137024;23;20052;-91
2023/07/21 01:45:14;;;;;;;5.97;2.50;;;15.60;73.30;;;;;;6137048;23;20025;-91
2023/07/21 01:47:45;;;;;;;6.20;2.67;;;15.60;73.30;;;;;;6137131;23;20071;-92
2023/07/21 01:50:16;;;;;;;5.80;2.67;;;15.60;73.10;;;;;;6137177;23;20048;-91
2023/07/21 01:52:45;;;;;;;8.00;2.78;;;15.70;72.90;;;;;;6137227;23;20048;-90
2023/07/21 01:55:28;;;;;;;5.60;2.35;;;15.60;72.80;;;;;;6137395;23;20100;-90
2023/07/21 01:57:58;;;;;;;7.70;2.67;;;15.60;72.50;;;;;;6137042;23;20021;-90
2023/07/21 02:00:33;;;;;;;5.53;2.35;;;15.50;73.10;;;;;;6136811;23;20435;-91
2023/07/21 02:03:17;;;;;;;6.47;2.47;;;15.50;72.80;;;;;;6140057;23;20017;-91
2023/07/21 02:05:46;;;;;;;5.13;2.30;;;15.50;73.10;;;;;;6161455;23;20013;-91
2023/07/21 02:08:14;;;;;;;5.60;2.38;;;15.50;72.90;;;;;;6136851;23;20017;-90
2023/07/21 02:10:41;;;;;;;5.85;2.50;;;15.50;73.00;;;;;;6161202;23;20019;-90
2023/07/21 02:13:20;;;;;;;4.82;2.33;;;15.50;72.80;;;;;;6139212;23;20017;-91
2023/07/21 02:15:47;;;;;;;6.13;2.53;;;15.50;72.90;;;;;;6137002;23;20028;-91
2023/07/21 02:18:16;;;;;;;6.30;2.65;;;15.40;72.90;;;;;;6137465;23;20047;-91
2023/07/21 02:20:43;;;;;;;6.65;2.35;;;15.50;73.00;;;;;;6136828;23;20354;-91
2023/07/21 02:23:12;;;;;;;5.80;2.35;;;15.50;72.90;;;;;;6136875;23;20440;-91
2023/07/21 02:25:40;;;;;;;8.18;2.83;;;15.50;72.80;;;;;;6136929;23;20036;-91
2023/07/21 02:28:08;;;;;;;6.20;2.60;;;15.50;72.90;;;;;;6136837;23;20028;-90
2023/07/21 02:30:35;;;;;;;5.75;2.40;;;15.70;72.20;;;;;;6136737;23;20016;-91
2023/07/21 02:33:02;;;;;;;7.60;3.10;;;15.70;72.00;;;;;;6136717;23;20072;-91
2023/07/21 02:35:30;;;;;;;5.10;2.20;;;15.70;72.20;;;;;;6136960;23;20028;-91
2023/07/21 02:38:00;;;;;;;7.75;2.75;;;15.70;72.40;;;;;;6136784;23;20100;-91
2023/07/21 02:40:29;;;;;;;6.87;2.80;;;15.60;72.40;;;;;;6136873;23;20093;-91
2023/07/21 02:42:56;;;;;;;8.57;2.65;;;15.50;72.80;;;;;;6136694;23;20047;-91
2023/07/21 02:45:23;;;;;;;6.00;2.83;;;15.50;72.70;;;;;;6136946;23;20028;-91
2023/07/21 02:47:50;;;;;;;6.55;2.67;;;15.40;72.80;;;;;;6137090;23;20021;-92
2023/07/21 02:50:17;;;;;;;6.22;2.30;;;15.30;73.30;;;;;;6137309;23;20100;-92
2023/07/21 02:52:44;;;;;;;7.43;2.50;;;15.30;73.20;;;;;;6137065;23;20021;-92
2023/07/21 02:55:12;;;;;;;5.90;2.45;;;15.40;73.30;;;;;;6136647;23;20076;-91
2023/07/21 02:57:39;;;;;;;7.03;2.60;;;15.50;73.20;;;;;;6136870;23;20027;-91
2023/07/21 03:00:12;;;;;;;6.03;2.92;;;15.50;72.40;;;;;;6137936;23;20051;-91
2023/07/21 03:02:50;;;;;;;5.45;2.10;;;15.50;72.60;;;;;;6139195;23;20021;-92
2023/07/21 03:05:17;;;;;;;6.77;2.20;;;15.50;73.00;;;;;;6137181;23;20100;-91
2023/07/21 03:07:44;;;;;;;5.72;2.47;;;15.50;72.90;;;;;;6136868;23;20021;-92
2023/07/21 03:10:12;;;;;;;6.05;2.65;;;15.40;73.00;;;;;;6161545;23;20013;-94
2023/07/21 03:12:39;;;;;;;6.55;2.63;;;15.40;73.20;;;;;;6136781;23;20017;-93
2023/07/21 03:15:10;;;;;;;7.07;2.70;;;15.40;73.00;;;;;;6137666;23;20021;-94
2023/07/21 03:17:58;;;;;;;6.30;2.60;;;15.30;73.20;;;;;;6151099;23;20124;-93
2023/07/21 03:20:27;;;;;;;7.38;2.38;;;15.20;73.40;;;;;;6137669;23;20031;-93
2023/07/21 03:22:54;;;;;;;6.25;2.60;;;15.30;73.30;;;;;;6136822;23;20025;-94
2023/07/21 03:25:21;;;;;;;5.53;2.42;;;15.20;73.00;;;;;;6136793;23;20325;-93
2023/07/21 03:27:49;;;;;;;7.00;2.72;;;15.20;73.20;;;;;;6136674;23;20021;-92
2023/07/21 03:30:20;;;;;;;5.50;2.40;;;15.20;73.30;;;;;;6138187;23;20017;-92
2023/07/21 03:32:52;;;;;;;5.38;2.30;;;15.20;73.50;;;;;;6161161;23;20036;-92
2023/07/21 03:35:20;;;;;;;7.20;2.67;;;15.20;73.60;;;;;;6136742;23;20021;-93
2023/07/21 03:37:50;;;;;;;5.50;2.30;;;15.30;73.50;;;;;;6138461;23;20432;-93
2023/07/21 03:40:20;;;;;;;6.65;2.60;;;15.30;73.10;;;;;;6138919;23;20031;-93
2023/07/21 03:42:47;;;;;;;5.83;2.43;;;15.20;73.30;;;;;;6138576;23;20399;-93
2023/07/21 03:45:15;;;;;;;5.65;2.35;;;15.20;73.60;;;;;;6138311;23;20020;-94
2023/07/21 03:47:42;;;;;;;5.68;2.38;;;15.20;73.30;;;;;;6162836;23;20029;-94
2023/07/21 03:50:09;;;;;;;5.70;2.15;;;15.30;73.20;;;;;;6138205;23;20067;-93
2023/07/21 03:52:36;;;;;;;5.78;2.30;;;15.30;73.10;;;;;;6138368;23;20021;-93
2023/07/21 03:55:04;;;;;;;6.87;2.60;;;15.40;73.00;;;;;;6138208;23;20055;-92
2023/07/21 03:57:32;;;;;;;6.32;2.17;;;15.50;72.50;;;;;;6138565;23;20017;-92
2023/07/21 03:59:59;;;;;;;7.40;2.00;;;15.50;72.80;;;;;;6138515;23;20360;-93
2023/07/21 04:02:26;;;;;;;6.53;2.50;;;15.60;72.60;;;;;;6138594;23;20455;-92
2023/07/21 04:04:54;;;;;;;7.00;2.38;;;15.70;72.10;;;;;;6137988;23;20108;-93
2023/07/21 04:07:22;;;;;;;5.90;2.40;;;15.80;72.20;;;;;;6138199;23;20025;-92
2023/07/21 04:09:49;;;;;;;8.02;2.60;;;15.70;71.70;;;;;;6137905;23;20017;-93
2023/07/21 04:12:17;;;;;;;6.05;2.45;;;15.70;71.80;;;;;;6138382;23;20028;-93
2023/07/21 04:14:44;;;;;;;6.18;2.60;;;15.80;72.00;;;;;;6137834;23;20013;-93
2023/07/21 04:17:11;;;;;;;5.63;2.38;;;15.80;71.80;;;;;;6138394;23;20017;-93
2023/07/21 04:19:38;;;;;;;6.17;2.20;;;15.80;71.80;;;;;;6162576;23;20025;-94
2023/07/21 04:22:07;;;;;;;5.93;2.30;;;15.70;72.10;;;;;;6162386;23;20032;-93
2023/07/21 04:24:35;;;;;;;5.75;2.25;;;15.80;72.40;;;;;;6138601;23;20021;-93
2023/07/21 04:27:03;;;;;;;7.40;2.30;;;15.90;72.10;;;;;;6137993;23;20036;-93
2023/07/21 04:29:32;;;;;;;5.13;2.20;;;16.00;72.00;;;;;;6138437;23;20017;-93
2023/07/21 04:32:04;;;;;;;5.60;2.53;;;16.10;71.90;;;;;;6138701;23;20021;-94
2023/07/21 04:34:33;;;;;;;5.95;2.22;;;16.20;71.70;;;;;;6138227;23;20045;-93
2023/07/21 04:37:00;;;;;;;6.82;2.22;;;16.30;70.90;;;;;;6162545;23;20440;-93
2023/07/21 04:39:30;;;;;;;4.95;2.17;;;16.40;70.40;;;;;;6138527;23;20032;-92
2023/07/21 04:41:58;;;;;;;6.15;2.15;;;16.40;70.20;;;;;;6137957;23;20068;-92
2023/07/21 04:44:26;;;;;;;6.23;2.40;;;16.40;69.90;;;;;;6138315;23;20032;-94
2023/07/21 04:46:53;;;;;;;5.00;2.17;;;16.40;70.20;;;;;;6138125;23;20108;-92
2023/07/21 04:49:24;;;;;;;5.88;2.30;;;16.40;70.60;;;;;;6137654;23;20021;-93
2023/07/21 04:51:52;;;;;;;6.28;1.95;;;16.40;70.20;;;;;;6138098;23;20453;-93
2023/07/21 04:54:19;;;;;;;6.95;1.98;;;16.50;70.30;;;;;;6137298;23;20021;-93
2023/07/21 04:56:47;;;;;;;6.60;2.10;;;16.50;70.20;;;;;;6138144;23;20108;-93
2023/07/21 04:59:16;;;;;;;6.97;2.45;;;16.50;70.20;;;;;;6138012;23;20050;-93
2023/07/21 05:01:43;;;;;;;7.05;1.92;;;16.50;70.40;;;;;;6137726;23;20351;-92
2023/07/21 05:04:11;;;;;;;6.63;2.45;;;16.50;70.20;;;;;;6137996;23;20047;-92
2023/07/21 05:06:39;;;;;;;6.43;2.15;;;16.50;70.10;;;;;;6137836;23;20031;-93
2023/07/21 05:09:07;;;;;;;5.37;1.90;;;16.50;70.50;;;;;;6137561;23;20104;-92
2023/07/21 05:11:34;;;;;;;5.65;2.22;;;16.50;70.30;;;;;;6137804;23;20020;-92
2023/07/21 05:14:03;;;;;;;6.38;2.10;;;16.60;70.60;;;;;;6137624;23;20462;-92
2023/07/21 05:16:44;;;;;;;5.80;2.38;;;16.80;69.20;;;;;;6140416;23;20068;-92
2023/07/21 05:19:46;;;;;;;5.47;2.20;;;17.00;69.00;;;;;;6121764;23;20044;-92
2023/07/21 05:22:40;;;;;;;9.53;2.33;;;17.10;68.50;;;;;;6142425;23;20021;-93
2023/07/21 05:25:21;;;;;;;5.47;2.15;;;17.20;68.60;;;;;;6140543;23;20020;-93
2023/07/21 05:27:49;;;;;;;6.32;2.10;;;17.30;67.70;;;;;;6137408;23;20041;-92
2023/07/21 05:30:17;;;;;;;4.00;1.90;;;17.40;67.40;;;;;;6137269;23;20043;-92
2023/07/21 05:32:49;;;;;;;6.00;2.40;;;17.50;68.00;;;;;;6139284;23;20051;-92
2023/07/21 05:35:22;;;;;;;19.47;2.33;;;17.60;67.80;;;;;;6138769;23;20013;-93
2023/07/21 05:37:54;;;;;;;5.88;2.20;;;17.80;68.10;;;;;;6138534;23;20021;-93
2023/07/21 05:40:21;;;;;;;4.85;1.77;;;18.00;67.10;;;;;;6137503;23;20027;-91
2023/07/21 05:42:48;;;;;;;5.95;2.30;;;18.00;65.80;;;;;;6137497;23;20111;-91
2023/07/21 05:45:16;;;;;;;5.50;2.08;;;18.00;66.60;;;;;;6161665;23;20025;-92
2023/07/21 05:47:45;;;;;;;6.50;2.10;;;18.00;66.70;;;;;;6137717;23;20041;-92
2023/07/21 05:50:12;;;;;;;6.82;2.30;;;18.10;66.20;;;;;;6137349;23;20016;-89
2023/07/21 05:52:42;;;;;;;5.88;2.00;;;18.00;66.10;;;;;;6137883;23;20028;-92
2023/07/21 05:55:17;;;;;;;5.72;1.90;;;18.10;66.60;;;;;;6138698;23;20028;-92
2023/07/21 05:57:44;;;;;;;4.15;1.67;;;18.20;66.30;;;;;;6137356;23;20017;-92
2023/07/21 06:00:14;;;;;;;6.03;1.90;;;18.30;65.20;;;;;;6137460;23;20031;-93
2023/07/21 06:02:49;;;;;;;5.25;2.10;;;18.50;65.00;;;;;;6161482;23;20413;-94
2023/07/21 06:05:17;;;;;;;5.38;2.00;;;18.70;65.60;;;;;;6137206;23;20021;-93
2023/07/21 06:08:06;;;;;;;5.22;1.60;;;18.80;65.30;;;;;;6165756;23;20123;-93
2023/07/21 06:10:59;;;;;;;6.32;2.38;;;19.00;65.20;;;;;;6145400;23;20021;-93
2023/07/21 06:13:39;;;;;;;5.83;2.00;;;19.10;64.20;;;;;;6140270;23;20025;-93
2023/07/21 06:16:15;;;;;;;5.93;1.90;;;19.20;63.80;;;;;;6164208;23;20025;-92
2023/07/21 06:18:45;;;;;;;4.75;1.77;;;19.20;64.10;;;;;;6138014;23;20051;-93
2023/07/21 06:21:13;;;;;;;6.15;1.75;;;19.40;64.30;;;;;;6136913;23;20021;-91
2023/07/21 06:23:43;;;;;;;4.45;1.70;;;19.50;64.40;;;;;;6137661;23;20017;-91
2023/07/21 06:26:10;;;;;;;4.53;1.63;;;19.60;64.10;;;;;;6137181;23;20451;-91
2023/07/21 06:28:37;;;;;;;4.35;1.60;;;19.80;62.80;;;;;;6137033;23;20021;-91
2023/07/21 06:31:04;;;;;;;35.30;3.40;;;19.80;61.70;;;;;;6137154;23;20037;-92
2023/07/21 06:33:55;;;;;;;14.02;2.10;;;19.90;61.80;;;;;;6155561;23;20092;-92
2023/07/21 06:36:42;;;;;;;5.93;1.85;;;19.90;62.10;;;;;;6164991;23;20067;-91
2023/07/21 06:39:19;;;;;;;6.60;1.57;;;19.80;63.00;;;;;;6138459;23;20020;-88
2023/07/21 06:42:00;;;;;;;5.82;1.58;;;19.90;64.20;;;;;;6138394;23;20025;-89
2023/07/21 06:44:45;;;;;;;4.57;1.60;;;20.00;63.40;;;;;;6164627;23;20036;-88
2023/07/21 06:47:32;;;;;;;5.10;1.48;;;20.10;63.40;;;;;;6140287;23;20021;-91
2023/07/21 06:50:20;;;;;;;6.30;1.83;;;20.20;61.90;;;;;;6140267;23;20013;-92
2023/07/21 06:52:50;;;;;;;4.40;1.67;;;20.40;62.70;;;;;;6137023;23;20439;-90
2023/07/21 06:55:21;;;;;;;4.68;1.92;;;20.60;62.10;;;;;;6136285;23;20017;-87
2023/07/21 06:57:48;;;;;;;6.53;2.33;;;20.80;63.60;;;;;;6135358;23;20044;-91
2023/07/21 07:00:16;;;;;;;6.85;2.15;;;20.80;61.10;;;;;;6160227;23;20025;-88
2023/07/21 07:02:49;;;;;;;4.97;1.92;;;21.00;61.90;;;;;;6135805;23;20021;-87
2023/07/21 07:05:17;;;;;;;7.77;2.20;;;21.10;61.40;;;;;;6159850;23;20024;-88
2023/07/21 07:07:44;;;;;;;5.82;1.88;;;21.20;59.90;;;;;;6135790;23;20028;-89
2023/07/21 07:10:11;;;;;;;5.88;1.80;;;21.30;60.50;;;;;;6135976;23;20017;-88
2023/07/21 07:12:38;;;;;;;5.78;1.85;;;21.50;61.00;;;;;;6136421;23;20044;-89
2023/07/21 07:15:06;;;;;;;5.80;2.10;;;21.50;59.40;;;;;;6137817;23;20017;-88
2023/07/21 07:17:33;;;;;;;7.83;2.30;;;21.50;59.80;;;;;;6138336;23;20324;-87
2023/07/21 07:20:00;;;;;;;5.07;2.05;;;21.50;60.20;;;;;;6162256;23;20052;-87
2023/07/21 07:22:27;;;;;;;6.18;2.33;;;21.50;59.60;;;;;;6162659;23;20021;-87
2023/07/21 07:24:54;;;;;;;6.53;2.50;;;21.50;59.30;;;;;;6137586;23;20024;-88
2023/07/21 07:27:22;;;;;;;5.03;1.67;;;21.30;59.20;;;;;;6137888;23;20447;-88
2023/07/21 07:29:49;;;;;;;7.17;2.40;;;21.40;60.60;;;;;;6137678;23;20021;-86
2023/07/21 07:32:17;;;;;;;14.93;2.85;;;21.40;59.20;;;;;;6137609;23;20013;-87
2023/07/21 07:34:44;;;;;;;6.28;2.00;;;21.30;59.90;;;;;;6138206;23;20024;-88
2023/07/21 07:37:11;;;;;;;5.70;2.38;;;21.30;61.00;;;;;;6138378;23;20100;-90
2023/07/21 07:39:38;;;;;;;6.82;2.08;;;21.40;60.50;;;;;;6138306;23;20337;-89
2023/07/21 07:42:05;;;;;;;8.90;2.00;;;21.50;60.50;;;;;;6137882;23;20017;-88
2023/07/21 07:44:34;;;;;;;5.72;2.03;;;21.60;61.00;;;;;;6161347;23;20024;-88
2023/07/21 07:47:01;;;;;;;6.57;2.05;;;21.80;60.20;;;;;;6161476;23;20560;-88
2023/07/21 07:49:29;;;;;;;9.43;2.53;;;22.10;59.90;;;;;;6161401;23;20282;-88
2023/07/21 07:51:56;;;;;;;4.57;1.95;;;22.20;58.60;;;;;;6136990;23;20020;-88
2023/07/21 07:54:23;;;;;;;5.77;1.90;;;22.40;57.50;;;;;;6136998;23;20025;-88
2023/07/21 07:56:51;;;;;;;6.18;1.85;;;22.60;57.40;;;;;;6162135;23;20451;-88
2023/07/21 07:59:18;;;;;;;5.53;2.58;;;22.60;59.40;;;;;;6137262;23;20013;-88
2023/07/21 08:01:45;;;;;;;5.70;2.15;;;22.70;56.30;;;;;;6161744;23;20241;-88
2023/07/21 08:04:12;;;;;;;6.07;2.10;;;22.70;56.70;;;;;;6136709;23;20017;-88
2023/07/21 08:06:40;;;;;;;5.60;2.20;;;22.60;57.90;;;;;;6162048;23;20009;-87
2023/07/21 08:09:09;;;;;;;5.90;2.70;;;22.60;56.90;;;;;;6161236;23;20044;-88
2023/07/21 08:11:37;;;;;;;7.07;2.58;;;22.50;57.40;;;;;;6136426;23;20049;-87
2023/07/21 08:14:05;;;;;;;4.57;2.03;;;22.40;57.60;;;;;;6160829;23;20511;-87
2023/07/21 08:16:32;;;;;;;5.00;2.33;;;22.40;58.70;;;;;;6136386;23;20017;-87
2023/07/21 08:18:59;;;;;;;5.13;2.10;;;22.40;58.20;;;;;;6136563;23;20044;-87
2023/07/21 08:21:29;;;;;;;6.53;2.55;;;22.50;58.50;;;;;;6160318;23;20076;-88
2023/07/21 08:23:56;;;;;;;6.78;2.40;;;22.50;58.30;;;;;;6135425;23;20021;-87
2023/07/21 08:26:23;;;;;;;6.72;2.60;;;22.40;57.20;;;;;;6135822;23;20025;-87
2023/07/21 08:28:52;;;;;;;5.90;2.28;;;22.50;57.80;;;;;;6161197;23;20076;-87
2023/07/21 08:31:20;;;;;;;6.53;2.33;;;22.60;58.10;;;;;;6136475;23;20338;-87
2023/07/21 08:33:47;;;;;;;7.85;2.67;;;22.60;57.30;;;;;;6136640;23;20020;-87
2023/07/21 08:36:14;;;;;;;6.40;2.50;;;22.60;56.30;;;;;;6161040;23;20112;-87
2023/07/21 08:38:41;;;;;;;7.72;2.50;;;22.60;56.90;;;;;;6160969;23;20072;-87
2023/07/21 08:41:12;;;;;;;6.55;2.40;;;22.60;57.50;;;;;;6136537;23;20774;-87
2023/07/21 08:43:40;;;;;;;5.13;2.20;;;22.70;57.10;;;;;;6136104;23;20477;-87
2023/07/21 08:46:08;;;;;;;7.45;2.60;;;22.90;57.00;;;;;;6187171;23;20021;-88
2023/07/21 08:48:35;;;;;;;5.03;2.55;;;23.10;56.10;;;;;;6136006;23;20463;-88
2023/07/21 08:51:03;;;;;;;6.95;2.85;;;23.20;56.60;;;;;;6160942;23;20436;-87
2023/07/21 08:53:31;;;;;;;6.78;2.33;;;23.20;55.20;;;;;;6136034;23;20017;-87
2023/07/21 08:56:00;;;;;;;5.03;2.03;;;23.20;54.70;;;;;;6136439;23;20539;-87
2023/07/21 08:58:28;;;;;;;5.40;2.25;;;23.30;54.80;;;;;;6136178;23;20451;-87
2023/07/21 09:00:56;;;;;;;5.80;2.20;;;23.20;54.80;;;;;;6136041;23;20079;-87
2023/07/21 09:03:29;;;;;;;8.25;2.53;;;23.10;54.10;;;;;;6135816;23;20396;-86
2023/07/21 09:05:59;;;;;;;5.68;1.95;;;23.10;55.60;;;;;;6159904;23;20017;-87
2023/07/21 09:08:29;;;;;;;5.77;2.10;;;23.20;56.10;;;;;;6162115;23;20028;-90
2023/07/21 09:10:59;;;;;;;4.22;1.85;;;23.40;55.90;;;;;;6137292;23;20017;-89
2023/07/21 09:13:27;;;;;;;6.13;1.98;;;23.50;54.40;;;;;;6137209;23;20025;-89
2023/07/21 09:15:56;;;;;;;6.07;2.13;;;23.50;55.10;;;;;;6161898;23;20396;-88
2023/07/21 09:18:25;;;;;;;5.90;2.20;;;23.60;54.90;;;;;;6137233;23;20013;-89
2023/07/21 09:20:52;;;;;;;5.17;2.20;;;23.70;54.40;;;;;;6137389;23;20024;-90
2023/07/21 09:23:21;;;;;;;6.57;2.20;;;23.60;54.40;;;;;;6137473;23;20337;-89
2023/07/21 09:25:53;;;;;;;5.32;2.17;;;23.70;53.00;;;;;;6137833;23;20024;-89
2023/07/21 09:28:38;;;;;;;4.70;2.13;;;23.80;53.30;;;;;;6137681;23;20455;-89
2023/07/21 09:31:06;;;;;;;6.55;2.17;;;23.80;52.50;;;;;;6161615;23;20020;-90
2023/07/21 09:33:39;;;;;;;4.87;2.10;;;23.80;52.00;;;;;;6161850;23;20013;-89
2023/07/21 09:36:08;;;;;;;5.75;2.00;;;23.70;52.30;;;;;;6161261;23;20506;-89
2023/07/21 09:38:37;;;;;;;6.82;2.13;;;23.70;52.20;;;;;;6137536;23;20056;-89
2023/07/21 09:41:13;;;;;;;4.90;2.08;;;24.00;53.40;;;;;;6137036;23;20020;-89
2023/07/21 09:43:41;;;;;;;6.47;2.30;;;24.30;53.80;;;;;;6134704;23;20020;-87
2023/07/21 09:46:09;;;;;;;6.53;2.00;;;24.40;53.00;;;;;;6135933;23;20035;-88
2023/07/21 09:48:44;;;;;;;5.93;2.50;;;24.60;53.50;;;;;;6137400;23;20017;-88
2023/07/21 09:51:12;;;;;;;10.85;4.30;;;24.60;53.00;;;;;;6135888;23;20017;-87
2023/07/21 09:53:44;;;;;;;7.63;2.75;;;24.50;52.90;;;;;;6135666;23;20020;-88
2023/07/21 09:56:13;;;;;;;5.90;2.47;;;24.40;52.70;;;;;;6160547;23;20013;-87
2023/07/21 09:58:53;;;;;;;8.37;2.40;;;24.40;53.30;;;;;;6160846;23;20388;-87
2023/07/21 10:01:20;;;;;;;6.45;2.13;;;24.30;53.50;;;;;;6135838;23;20466;-87
2023/07/21 10:03:48;;;;;;;4.72;1.75;;;24.40;52.60;;;;;;6160359;23;20025;-87
2023/07/21 10:06:16;;;;;;;5.53;2.00;;;24.30;53.40;;;;;;6186914;23;20100;-87
2023/07/21 10:08:45;;;;;;;5.53;2.00;;;24.30;52.30;;;;;;6136255;23;20360;-88
2023/07/21 10:11:13;;;;;;;5.60;2.37;;;24.30;51.40;;;;;;6136386;23;20028;-88
2023/07/21 10:13:46;;;;;;;6.10;2.10;;;24.30;52.40;;;;;;6135977;23;20028;-87
2023/07/21 10:16:14;;;;;;;9.00;2.67;;;24.30;53.00;;;;;;6136268;23;20018;-88
2023/07/21 10:19:10;;;;;;;6.30;2.38;;;24.40;52.90;;;;;;6186520;23;20024;-88
2023/07/21 10:21:51;;;;;;;9.52;2.80;;;24.40;52.80;;;;;;6136488;23;20508;-88
2023/07/21 10:24:26;;;;;;;7.10;2.33;;;24.50;54.10;;;;;;6185976;23;20017;-87
2023/07/21 10:27:04;;;;;;;6.95;2.20;;;24.50;53.20;;;;;;6160640;23;20455;-87
2023/07/21 10:29:32;;;;;;;5.72;2.20;;;24.40;54.40;;;;;;6135954;23;20104;-88
2023/07/21 10:32:03;;;;;;;8.88;2.58;;;24.50;55.10;;;;;;6160686;23;20017;-88
2023/07/21 10:34:43;;;;;;;8.40;2.55;;;24.40;54.60;;;;;;6135672;23;20356;-87
2023/07/21 10:37:10;;;;;;;6.77;2.40;;;24.60;55.80;;;;;;6135089;23;20020;-87
2023/07/21 10:39:42;;;;;;;6.88;2.35;;;24.60;54.00;;;;;;6135795;23;20023;-88
2023/07/21 10:42:11;;;;;;;7.72;2.70;;;24.60;53.50;;;;;;6135673;23;20021;-88
2023/07/21 10:44:40;;;;;;;5.95;2.40;;;24.60;54.00;;;;;;6159995;23;20396;-88
2023/07/21 10:47:16;;;;;;;6.93;2.78;;;24.70;53.90;;;;;;6135315;23;20384;-88
2023/07/21 10:49:45;;;;;;;7.43;2.70;;;24.70;53.40;;;;;;6135525;23;20407;-88
2023/07/21 10:52:12;;;;;;;5.85;2.83;;;24.90;54.00;;;;;;6135200;23;20341;-87
2023/07/21 10:54:40;;;;;;;7.75;2.85;;;25.10;54.20;;;;;;6135329;23;20017;-88
2023/07/21 10:57:08;;;;;;;6.57;2.58;;;25.30;53.30;;;;;;6160336;23;20495;-88
2023/07/21 10:59:36;;;;;;;7.28;2.53;;;25.10;52.40;;;;;;6136143;23;20013;-88
2023/07/21 11:02:06;;;;;;;5.13;2.20;;;25.10;52.50;;;;;;6135859;23;20040;-91
2023/07/21 11:04:35;;;;;;;6.57;2.40;;;25.10;53.80;;;;;;6136834;23;20087;-91
2023/07/21 11:07:03;;;;;;;7.13;2.78;;;24.90;52.90;;;;;;6136470;23;20021;-91
2023/07/21 11:09:33;;;;;;;10.52;2.80;;;24.60;52.80;;;;;;6136495;23;20048;-91
2023/07/21 11:12:03;;;;;;;7.72;2.63;;;24.60;54.60;;;;;;6136750;23;20017;-91
2023/07/21 11:14:31;;;;;;;7.37;2.50;;;24.60;54.90;;;;;;6136769;23;20017;-91
2023/07/21 11:17:03;;;;;;;6.75;2.55;;;24.80;54.80;;;;;;6136803;23;20048;-91
2023/07/21 11:19:33;;;;;;;8.32;2.50;;;24.90;54.30;;;;;;6136695;23;20018;-91
2023/07/21 11:22:03;;;;;;;7.20;2.75;;;25.00;55.70;;;;;;6135935;23;20028;-92
2023/07/21 11:24:31;;;;;;;8.50;3.30;;;25.20;55.00;;;;;;6136780;23;20399;-91
2023/07/21 11:27:06;;;;;;;8.07;2.60;;;25.40;53.10;;;;;;6136628;23;20055;-92
2023/07/21 11:29:44;;;;;;;7.40;2.70;;;25.30;53.50;;;;;;6137814;23;20071;-91
2023/07/21 11:32:19;;;;;;;6.03;2.80;;;25.30;51.80;;;;;;6136775;23;20013;-91
2023/07/21 11:35:02;;;;;;;7.35;2.78;;;25.30;52.20;;;;;;6136555;23;20017;-91
2023/07/21 11:37:38;;;;;;;5.60;2.30;;;25.30;53.30;;;;;;6136319;23;20067;-92
2023/07/21 11:40:15;;;;;;;7.53;2.67;;;25.50;53.00;;;;;;6136429;23;20436;-90
2023/07/21 11:42:48;;;;;;;9.43;2.70;;;25.40;52.30;;;;;;6160914;23;20036;-90
2023/07/21 11:45:35;;;;;;;7.15;3.00;;;25.40;53.00;;;;;;6136697;23;20024;-94
2023/07/21 11:48:14;;;;;;;5.63;2.70;;;25.40;52.60;;;;;;6137392;23;20024;-91
2023/07/21 11:50:47;;;;;;;6.72;2.85;;;25.50;52.00;;;;;;6160904;23;20428;-91
2023/07/21 11:53:14;;;;;;;8.90;2.60;;;25.60;53.10;;;;;;6136684;23;20013;-91
2023/07/21 11:55:42;;;;;;;7.22;2.78;;;25.90;52.80;;;;;;6136163;23;20486;-91
2023/07/21 11:58:11;;;;;;;5.63;2.45;;;25.70;52.70;;;;;;6136829;23;20040;-92
2023/07/21 12:00:39;;;;;;;6.15;2.65;;;25.60;53.30;;;;;;6138426;23;20025;-92
2023/07/21 12:03:08;;;;;;;8.57;2.88;;;25.60;53.50;;;;;;6138274;23;20021;-92
2023/07/21 12:05:35;;;;;;;6.87;2.47;;;25.50;52.20;;;;;;6138463;23;20013;-91
2023/07/21 12:08:06;;;;;;;6.30;2.85;;;25.60;54.70;;;;;;6138164;23;20017;-93
2023/07/21 12:10:33;;;;;;;6.93;2.97;;;25.60;52.80;;;;;;6162777;23;20036;-91
2023/07/21 12:13:03;;;;;;;9.10;3.05;;;25.70;53.80;;;;;;6162671;23;20021;-92
2023/07/21 12:15:31;;;;;;;6.15;2.50;;;25.80;53.10;;;;;;6138271;23;20017;-91
2023/07/21 12:17:58;;;;;;;7.07;1.80;;;25.80;53.50;;;;;;6138323;23;20048;-91
2023/07/21 12:20:26;;;;;;;5.53;1.70;;;25.60;53.20;;;;;;6138102;23;20017;-91
2023/07/21 12:22:53;;;;;;;7.90;1.63;;;25.50;52.80;;;;;;6138023;23;20346;-91
2023/07/21 12:25:20;;;;;;;5.82;1.60;;;25.20;51.70;;;;;;6162195;23;20117;-90
2023/07/21 12:27:49;;;;;;;4.80;1.52;;;25.00;53.90;;;;;;6137945;23;20051;-91
2023/07/21 12:30:20;;;;;;;7.53;1.57;;;25.00;53.40;;;;;;6139383;23;20021;-91
2023/07/21 12:32:47;;;;;;;5.63;1.60;;;25.00;54.90;;;;;;6138182;23;20032;-92
2023/07/21 12:35:15;;;;;;;6.32;1.85;;;24.90;54.80;;;;;;6138241;23;20054;-91
2023/07/21 12:37:42;;;;;;;9.13;2.20;;;24.80;54.60;;;;;;6138183;23;20386;-93
2023/07/21 12:40:12;;;;;;;12.25;3.03;;;24.60;55.00;;;;;;6141206;23;20028;-93
2023/07/21 12:42:40;;;;;;;11.03;2.33;;;24.40;54.90;;;;;;6138607;23;20075;-92
2023/07/21 12:45:08;;;;;;;8.25;2.13;;;24.30;54.60;;;;;;6138334;23;20407;-92
2023/07/21 12:47:36;;;;;;;10.13;2.03;;;24.20;54.90;;;;;;6138021;23;20443;-91
2023/07/21 12:50:04;;;;;;;7.93;1.80;;;24.10;54.90;;;;;;6138228;23;20048;-92
2023/07/21 12:52:31;;;;;;;7.90;1.67;;;24.10;56.00;;;;;;6138095;23;20017;-93
2023/07/21 12:54:59;;;;;;;6.23;1.70;;;24.10;55.70;;;;;;6137980;23;20132;-92
2023/07/21 12:57:26;;;;;;;6.03;1.90;;;24.00;56.10;;;;;;6138031;23;20052;-93
2023/07/21 12:59:53;;;;;;;6.03;1.70;;;23.80;56.60;;;;;;6137751;23;20021;-92